createdAt,value
2018-12-06T00:00:13.965Z,1.48
2018-12-06T00:02:43.534Z,1.52
2018-12-06T00:05:13.542Z,1.62
2018-12-06T00:07:52.777Z,1.75
2018-12-06T00:10:22.389Z,1.62
2018-12-06T00:12:51.786Z,1.60
2018-12-06T00:15:27.293Z,1.45
2018-12-06T00:17:56.652Z,1.35
2018-12-06T00:20:26.350Z,1.48
2018-12-06T00:22:56.115Z,1.42
2018-12-06T00:25:25.633Z,1.44
2018-12-06T00:27:55.524Z,1.36
2018-12-06T00:30:37.523Z,1.38
2018-12-06T00:33:07.230Z,1.34
2018-12-06T00:35:36.571Z,1.21
2018-12-06T00:38:05.948Z,1.48
2018-12-06T00:40:35.648Z,1.44
2018-12-06T00:43:05.030Z,1.34
2018-12-06T00:45:34.648Z,1.37
2018-12-06T00:48:04.368Z,1.30
2018-12-06T00:50:33.902Z,1.51
2018-12-06T00:53:03.291Z,1.43
2018-12-06T00:55:32.815Z,1.33
2018-12-06T00:58:02.249Z,1.30
2018-12-06T01:00:31.476Z,1.21
2018-12-06T01:03:01.530Z,1.15
2018-12-06T01:05:31.012Z,1.22
2018-12-06T01:08:00.740Z,1.18
2018-12-06T01:10:30.400Z,1.43
2018-12-06T01:12:59.641Z,1.23
2018-12-06T01:15:29.424Z,1.21
2018-12-06T01:17:59.017Z,1.34
2018-12-06T01:20:28.304Z,1.35
2018-12-06T01:22:58.340Z,1.13
2018-12-06T01:25:28.164Z,1.32
2018-12-06T01:27:57.567Z,1.20
2018-12-06T01:30:27.210Z,1.32
2018-12-06T01:32:56.668Z,1.27
2018-12-06T01:35:25.920Z,1.40
2018-12-06T01:37:55.840Z,1.22
2018-12-06T01:40:25.644Z,1.02
2018-12-06T01:42:55.071Z,1.26
2018-12-06T01:45:24.654Z,1.18
2018-12-06T01:47:54.257Z,1.33
2018-12-06T01:50:23.851Z,1.43
2018-12-06T01:52:53.388Z,1.28
2018-12-06T01:55:22.951Z,1.40
2018-12-06T01:57:52.404Z,1.29
2018-12-06T02:00:22.052Z,1.37
2018-12-06T02:02:51.606Z,1.31
2018-12-06T02:05:21.315Z,1.15
2018-12-06T02:07:50.624Z,1.35
2018-12-06T02:10:20.281Z,1.37
2018-12-06T02:12:49.600Z,1.37
2018-12-06T02:15:18.980Z,1.29
2018-12-06T02:17:48.630Z,1.29
2018-12-06T02:20:18.237Z,1.13
2018-12-06T02:22:47.596Z,1.05
2018-12-06T02:25:17.086Z,1.17
2018-12-06T02:27:46.784Z,1.20
2018-12-06T02:30:16.398Z,1.40
2018-12-06T02:32:45.929Z,1.29
2018-12-06T02:35:15.567Z,0.92
2018-12-06T02:37:45.145Z,1.10
2018-12-06T02:40:15.106Z,0.93
2018-12-06T02:42:44.772Z,1.05
2018-12-06T02:45:14.626Z,0.99
2018-12-06T02:47:44.261Z,1.21
2018-12-06T02:50:13.824Z,1.13
2018-12-06T02:52:43.611Z,1.12
2018-12-06T02:55:12.982Z,1.07
2018-12-06T02:57:42.651Z,1.13
2018-12-06T03:00:12.269Z,1.27
2018-12-06T03:02:41.903Z,1.21
2018-12-06T03:05:11.701Z,1.17
2018-12-06T03:07:41.311Z,1.01
2018-12-06T03:10:10.990Z,1.15
2018-12-06T03:12:40.929Z,1.05
2018-12-06T03:15:10.467Z,1.01
2018-12-06T03:17:39.798Z,1.32
2018-12-06T03:20:09.661Z,1.23
2018-12-06T03:22:39.009Z,1.31
2018-12-06T03:25:08.577Z,1.16
2018-12-06T03:27:38.411Z,0.83
2018-12-06T03:30:08.316Z,0.76
2018-12-06T03:32:38.005Z,0.76
2018-12-06T03:35:07.921Z,0.92
2018-12-06T03:37:37.437Z,0.81
2018-12-06T03:40:07.655Z,0.96
2018-12-06T03:42:37.655Z,0.81
2018-12-06T03:45:07.058Z,0.91
2018-12-06T03:47:36.735Z,0.76
2018-12-06T03:50:06.583Z,1.01
2018-12-06T03:52:36.159Z,0.91
2018-12-06T03:55:05.616Z,0.83
2018-12-06T03:57:35.205Z,0.91
2018-12-06T04:00:05.564Z,0.98
2018-12-06T04:02:35.336Z,0.93
2018-12-06T04:05:05.058Z,0.92
2018-12-06T04:07:34.621Z,0.88
2018-12-06T04:10:04.360Z,0.79
2018-12-06T04:12:34.071Z,0.86
2018-12-06T04:15:03.681Z,1.07
2018-12-06T04:17:33.442Z,1.02
2018-12-06T04:20:02.882Z,1.11
2018-12-06T04:22:32.498Z,0.91
2018-12-06T04:25:02.076Z,1.06
2018-12-06T04:27:31.445Z,0.74
2018-12-06T04:30:00.803Z,0.87
2018-12-06T04:32:30.289Z,1.13
2018-12-06T04:34:59.952Z,1.04
2018-12-06T04:37:29.530Z,1.01
2018-12-06T04:39:58.888Z,1.27
2018-12-06T04:42:28.447Z,1.17
2018-12-06T04:44:57.841Z,0.86
2018-12-06T04:47:27.369Z,0.68
2018-12-06T04:49:56.841Z,0.68
2018-12-06T04:52:26.272Z,0.97
2018-12-06T04:54:55.900Z,1.06
2018-12-06T04:57:25.544Z,0.92
2018-12-06T04:59:54.950Z,1.16
2018-12-06T05:02:24.489Z,1.33
2018-12-06T05:04:54.195Z,1.03
2018-12-06T05:07:23.656Z,0.89
2018-12-06T05:09:53.154Z,1.01
2018-12-06T05:12:22.520Z,1.06
2018-12-06T05:14:52.260Z,0.86
2018-12-06T05:17:21.622Z,0.79
2018-12-06T05:19:51.377Z,0.98
2018-12-06T05:22:20.901Z,0.84
2018-12-06T05:24:50.892Z,0.97
2018-12-06T05:27:20.477Z,0.94
2018-12-06T05:29:50.146Z,1.16
2018-12-06T05:32:19.709Z,1.13
2018-12-06T05:34:49.199Z,1.31
2018-12-06T05:37:18.605Z,0.87
2018-12-06T05:39:48.215Z,0.93
2018-12-06T05:42:17.632Z,1.02
2018-12-06T05:44:47.224Z,0.82
2018-12-06T05:47:16.653Z,0.78
2018-12-06T05:49:46.144Z,0.62
2018-12-06T05:52:15.654Z,0.44
2018-12-06T05:54:45.175Z,0.65
2018-12-06T05:57:14.517Z,0.64
2018-12-06T05:59:44.222Z,0.33
2018-12-06T06:02:13.760Z,0.56
2018-12-06T06:04:43.327Z,0.35
2018-12-06T06:07:12.838Z,0.09
2018-12-06T06:09:42.553Z,0.18
2018-12-06T06:12:11.977Z,0.19
2018-12-06T06:14:41.431Z,0.23
2018-12-06T06:17:10.877Z,0.15
2018-12-06T06:19:40.317Z,0.06
2018-12-06T06:22:09.620Z,-0.02
2018-12-06T06:24:39.146Z,-0.06
2018-12-06T06:27:08.648Z,-0.05
2018-12-06T06:29:38.120Z,0.15
2018-12-06T06:32:07.828Z,0.02
2018-12-06T06:34:37.135Z,-0.06
2018-12-06T06:37:06.728Z,0.12
2018-12-06T06:39:35.935Z,0.23
2018-12-06T06:42:05.686Z,0.31
2018-12-06T06:44:35.371Z,0.29
2018-12-06T06:47:05.221Z,0.08
2018-12-06T06:49:34.764Z,0.08
2018-12-06T06:52:04.202Z,0.40
2018-12-06T06:54:33.440Z,0.61
2018-12-06T06:57:03.255Z,0.61
2018-12-06T06:59:32.581Z,0.52
2018-12-06T07:02:02.212Z,0.57
2018-12-06T07:04:31.488Z,0.60
2018-12-06T07:07:00.906Z,0.62
2018-12-06T07:09:30.336Z,0.82
2018-12-06T07:11:59.964Z,1.06
2018-12-06T07:14:29.531Z,0.98
2018-12-06T07:16:59.054Z,0.94
2018-12-06T07:19:28.740Z,0.80
2018-12-06T07:21:58.091Z,1.04
2018-12-06T07:24:27.462Z,0.93
2018-12-06T07:26:57.434Z,0.84
2018-12-06T07:30:12.097Z,0.73
2018-12-06T07:32:37.604Z,0.75
2018-12-06T07:35:07.107Z,0.71
2018-12-06T07:37:36.435Z,0.95
2018-12-06T07:40:06.644Z,0.70
2018-12-06T07:42:35.937Z,1.09
2018-12-06T07:45:05.636Z,1.06
2018-12-06T07:47:35.036Z,1.03
2018-12-06T07:50:05.637Z,1.20
2018-12-06T07:52:34.989Z,1.17
2018-12-06T07:55:05.877Z,1.11
2018-12-06T07:57:35.536Z,1.11
2018-12-06T08:00:07.652Z,0.92
2018-12-06T08:02:38.477Z,0.62
2018-12-06T08:05:08.581Z,0.69
2018-12-06T08:07:38.173Z,0.92
2018-12-06T08:10:08.603Z,1.14
2018-12-06T08:12:38.205Z,1.37
2018-12-06T08:15:08.281Z,1.25
2018-12-06T08:17:37.791Z,1.32
2018-12-06T08:20:07.788Z,1.29
2018-12-06T08:22:37.274Z,1.49
2018-12-06T08:25:06.810Z,1.67
2018-12-06T08:27:36.284Z,1.71
2018-12-06T08:30:06.182Z,1.87
2018-12-06T08:32:35.768Z,1.97
2018-12-06T08:35:05.709Z,1.78
2018-12-06T08:37:35.189Z,1.74
2018-12-06T08:40:04.976Z,1.79
2018-12-06T08:42:34.449Z,1.76
2018-12-06T08:45:04.004Z,1.89
2018-12-06T08:47:33.584Z,2.04
2018-12-06T08:50:02.872Z,1.83
2018-12-06T08:52:32.588Z,2.13
2018-12-06T08:55:02.222Z,2.70
2018-12-06T08:57:31.820Z,2.55
2018-12-06T09:00:01.488Z,2.51
2018-12-06T09:02:30.978Z,2.59
2018-12-06T09:05:00.542Z,2.44
2018-12-06T09:07:30.465Z,2.05
2018-12-06T09:09:59.738Z,1.93
2018-12-06T09:12:29.273Z,1.87
2018-12-06T09:14:58.875Z,1.94
2018-12-06T09:17:28.300Z,2.21
2018-12-06T09:19:57.848Z,2.12
2018-12-06T09:22:27.546Z,2.43
2018-12-06T09:24:57.445Z,2.62
2018-12-06T09:27:26.711Z,2.87
2018-12-06T09:29:56.019Z,2.99
2018-12-06T09:32:25.488Z,3.15
2018-12-06T09:34:54.973Z,3.10
2018-12-06T09:37:24.660Z,3.91
2018-12-06T09:39:59.416Z,3.76
2018-12-06T09:42:28.896Z,3.74
2018-12-06T09:44:59.376Z,4.29
2018-12-06T09:47:28.936Z,4.31
2018-12-06T09:49:58.491Z,4.36
2018-12-06T09:52:28.217Z,4.30
2018-12-06T09:54:57.500Z,4.56
2018-12-06T09:57:27.054Z,4.65
2018-12-06T09:59:56.592Z,4.34
2018-12-06T10:02:25.943Z,4.59
2018-12-06T10:04:55.490Z,4.98
2018-12-06T10:07:24.931Z,5.28
2018-12-06T10:09:54.783Z,5.53
2018-12-06T10:12:24.306Z,5.52
2018-12-06T10:14:53.766Z,5.52
2018-12-06T10:17:23.327Z,4.97
2018-12-06T10:19:52.771Z,5.30
2018-12-06T10:22:22.416Z,5.91
2018-12-06T10:24:51.982Z,5.41
2018-12-06T10:27:21.301Z,6.02
2018-12-06T10:29:51.048Z,5.47
2018-12-06T10:32:20.752Z,5.24
2018-12-06T10:34:53.584Z,5.64
2018-12-06T10:37:22.736Z,5.82
2018-12-06T10:39:52.221Z,5.67
2018-12-06T10:42:21.957Z,5.84
2018-12-06T10:44:51.671Z,5.32
2018-12-06T10:47:21.125Z,6.20
2018-12-06T10:49:50.857Z,5.64
2018-12-06T10:52:20.197Z,5.83
2018-12-06T10:54:49.587Z,5.94
2018-12-06T10:57:19.218Z,5.71
2018-12-06T10:59:48.874Z,5.79
2018-12-06T11:02:23.743Z,6.37
2018-12-06T11:04:53.056Z,6.35
2018-12-06T11:07:22.710Z,5.85
2018-12-06T11:09:52.205Z,6.19
2018-12-06T11:12:21.867Z,6.48
2018-12-06T11:14:51.361Z,6.88
2018-12-06T11:17:20.652Z,7.44
2018-12-06T11:19:50.316Z,7.74
2018-12-06T11:22:19.755Z,7.85
2018-12-06T11:24:49.667Z,7.74
2018-12-06T11:27:19.012Z,7.98
2018-12-06T11:29:48.479Z,7.63
2018-12-06T11:32:17.755Z,7.46
2018-12-06T11:34:47.304Z,7.80
2018-12-06T11:37:16.670Z,6.99
2018-12-06T11:39:46.172Z,6.40
2018-12-06T11:42:15.582Z,6.70
2018-12-06T11:44:45.036Z,7.60
2018-12-06T11:47:14.607Z,8.16
2018-12-06T11:49:44.137Z,7.64
2018-12-06T11:52:14.137Z,8.39
2018-12-06T11:54:43.581Z,8.56
2018-12-06T11:57:13.445Z,8.59
2018-12-06T11:59:43.043Z,7.85
2018-12-06T12:02:12.336Z,8.35
2018-12-06T12:04:41.705Z,7.84
2018-12-06T12:07:10.989Z,7.59
2018-12-06T12:09:40.616Z,7.83
2018-12-06T12:12:09.947Z,8.45
2018-12-06T12:14:41.405Z,7.87
2018-12-06T12:17:10.808Z,7.86
2018-12-06T12:19:40.522Z,8.14
2018-12-06T12:22:10.239Z,7.99
2018-12-06T12:24:39.529Z,8.56
2018-12-06T12:27:09.020Z,8.01
2018-12-06T12:29:38.346Z,8.20
2018-12-06T12:32:07.893Z,8.22
2018-12-06T12:34:37.472Z,9.44
2018-12-06T12:37:06.809Z,9.28
2018-12-06T12:39:36.200Z,9.71
2018-12-06T12:42:05.948Z,10.05
2018-12-06T12:44:35.326Z,9.92
2018-12-06T12:47:04.909Z,9.67
2018-12-06T12:49:34.648Z,9.04
2018-12-06T12:52:04.428Z,9.42
2018-12-06T12:54:33.944Z,9.65
2018-12-06T12:57:03.260Z,8.85
2018-12-06T12:59:32.839Z,9.36
2018-12-06T13:02:02.595Z,9.36
2018-12-06T13:04:32.098Z,10.22
2018-12-06T13:07:10.797Z,10.25
2018-12-06T13:09:40.516Z,9.83
2018-12-06T13:12:10.133Z,10.14
2018-12-06T13:14:39.645Z,10.31
2018-12-06T13:17:09.487Z,10.69
2018-12-06T13:19:39.952Z,11.10
2018-12-06T13:22:09.433Z,11.04
2018-12-06T13:24:39.132Z,11.37
2018-12-06T13:27:08.641Z,11.14
2018-12-06T13:29:38.041Z,11.06
2018-12-06T13:32:07.867Z,10.94
2018-12-06T13:34:37.540Z,10.80
2018-12-06T13:37:07.140Z,10.68
2018-12-06T13:39:36.466Z,10.54
2018-12-06T13:42:05.812Z,10.40
2018-12-06T13:44:35.304Z,10.35
2018-12-06T13:47:04.826Z,10.49
2018-12-06T13:49:34.464Z,10.07
2018-12-06T13:52:04.126Z,10.40
2018-12-06T13:54:33.576Z,9.10
2018-12-06T13:57:03.159Z,7.93
2018-12-06T13:59:32.638Z,8.45
2018-12-06T14:02:02.417Z,7.77
2018-12-06T14:04:32.014Z,7.35
2018-12-06T14:07:01.680Z,7.43
2018-12-06T14:09:31.036Z,7.60
2018-12-06T14:12:00.497Z,7.83
2018-12-06T14:14:29.999Z,7.56
2018-12-06T14:16:59.304Z,6.84
2018-12-06T14:19:28.862Z,6.44
2018-12-06T14:21:58.273Z,6.34
2018-12-06T14:24:27.901Z,5.82
2018-12-06T14:26:57.768Z,5.60
2018-12-06T14:29:27.217Z,5.35
2018-12-06T14:31:56.816Z,4.91
2018-12-06T14:34:26.286Z,4.82
2018-12-06T14:37:02.070Z,4.50
2018-12-06T14:39:27.193Z,3.98
2018-12-06T14:41:56.822Z,3.98
2018-12-06T14:44:26.424Z,3.89
2018-12-06T14:46:55.960Z,3.77
2018-12-06T14:49:26.510Z,3.78
2018-12-06T14:51:56.097Z,3.27
2018-12-06T14:54:25.725Z,3.17
2018-12-06T14:56:55.220Z,2.85
2018-12-06T14:59:24.621Z,2.55
2018-12-06T15:01:54.104Z,2.32
2018-12-06T15:04:23.599Z,2.16
2018-12-06T15:06:53.215Z,2.02
2018-12-06T15:09:22.804Z,1.83
2018-12-06T15:11:52.099Z,1.76
2018-12-06T15:14:21.713Z,1.78
2018-12-06T15:16:51.364Z,1.58
2018-12-06T15:19:20.810Z,1.45
2018-12-06T15:21:50.228Z,1.34
2018-12-06T15:24:19.540Z,1.31
2018-12-06T15:26:48.924Z,1.28
2018-12-06T15:29:18.188Z,1.36
2018-12-06T15:31:47.560Z,1.26
2018-12-06T15:34:16.817Z,1.02
2018-12-06T15:36:46.386Z,0.87
2018-12-06T15:39:15.917Z,0.96
2018-12-06T15:41:45.464Z,1.02
2018-12-06T15:44:15.238Z,0.88
2018-12-06T15:46:44.573Z,0.89
2018-12-06T15:49:14.232Z,0.97
2018-12-06T15:51:43.731Z,0.81
2018-12-06T15:54:13.520Z,0.71
2018-12-06T15:56:43.081Z,0.64
2018-12-06T15:59:12.443Z,0.48
2018-12-06T16:01:42.559Z,0.57
2018-12-06T16:04:12.157Z,0.68
2018-12-06T16:06:41.728Z,0.56
2018-12-06T16:09:12.245Z,0.59
2018-12-06T16:11:41.745Z,0.60
2018-12-06T16:14:11.081Z,0.49
2018-12-06T16:16:40.544Z,0.28
2018-12-06T16:19:10.096Z,0.36
2018-12-06T16:21:40.326Z,0.33
2018-12-06T16:24:09.916Z,0.32
2018-12-06T16:26:39.434Z,0.29
2018-12-06T16:29:08.829Z,0.24
2018-12-06T16:31:38.536Z,0.51
2018-12-06T16:34:08.652Z,0.56
2018-12-06T16:36:38.447Z,0.56
2018-12-06T16:39:08.449Z,0.66
2018-12-06T16:41:37.924Z,0.21
2018-12-06T16:44:07.683Z,0.27
2018-12-06T16:46:37.339Z,0.20
2018-12-06T16:49:10.016Z,0.18
2018-12-06T16:51:38.358Z,0.24
2018-12-06T16:54:07.804Z,0.40
2018-12-06T16:56:37.191Z,0.06
2018-12-06T16:59:06.965Z,0.22
2018-12-06T17:01:36.380Z,0.10
2018-12-06T17:04:05.850Z,0.20
2018-12-06T17:06:35.375Z,0.26
2018-12-06T17:09:07.428Z,0.16
2018-12-06T17:11:37.052Z,0.22
2018-12-06T17:14:06.421Z,0.04
2018-12-06T17:16:36.034Z,-0.10
2018-12-06T17:19:05.564Z,-0.19
2018-12-06T17:21:34.889Z,-0.27
2018-12-06T17:24:04.369Z,-0.16
2018-12-06T17:26:33.942Z,-0.16
2018-12-06T17:29:03.275Z,-0.13
2018-12-06T17:31:32.933Z,-0.23
2018-12-06T17:34:02.367Z,-0.31
2018-12-06T17:36:32.072Z,-0.39
2018-12-06T17:39:01.500Z,-0.39
2018-12-06T17:41:31.354Z,-0.50
2018-12-06T17:44:01.092Z,-0.45
2018-12-06T17:46:30.532Z,-0.19
2018-12-06T17:49:00.141Z,-0.45
2018-12-06T17:51:29.695Z,-0.57
2018-12-06T17:53:59.256Z,-0.70
2018-12-06T17:56:29.038Z,-0.70
2018-12-06T17:58:58.425Z,-0.67
2018-12-06T18:01:28.423Z,-0.70
2018-12-06T18:03:57.819Z,-0.72
2018-12-06T18:06:27.243Z,-0.64
2018-12-06T18:08:56.904Z,-0.52
2018-12-06T18:11:26.186Z,-0.47
2018-12-06T18:13:55.646Z,-0.69
2018-12-06T18:16:25.189Z,-0.56
2018-12-06T18:18:54.707Z,-0.79
2018-12-06T18:21:24.198Z,-0.79
2018-12-06T18:23:53.733Z,-0.76
2018-12-06T18:26:23.284Z,-0.72
2018-12-06T18:28:52.971Z,-0.87
2018-12-06T18:31:22.332Z,-0.78
2018-12-06T18:33:51.996Z,-1.05
2018-12-06T18:36:21.548Z,-1.01
2018-12-06T18:38:51.025Z,-1.02
2018-12-06T18:41:20.657Z,-1.14
2018-12-06T18:43:50.368Z,-1.17
2018-12-06T18:46:19.773Z,-1.23
2018-12-06T18:48:49.416Z,-1.18
2018-12-06T18:51:18.982Z,-1.16
2018-12-06T18:53:48.618Z,-1.26
2018-12-06T18:56:18.514Z,-1.20
2018-12-06T18:58:48.022Z,-1.30
2018-12-06T19:01:17.626Z,-1.29
2018-12-06T19:03:46.918Z,-1.21
2018-12-06T19:06:16.538Z,-1.14
2018-12-06T19:08:46.216Z,-1.25
2018-12-06T19:11:16.016Z,-1.34
2018-12-06T19:13:45.691Z,-1.11
2018-12-06T19:16:15.176Z,-1.24
2018-12-06T19:18:44.691Z,-1.40
2018-12-06T19:21:14.300Z,-1.34
2018-12-06T19:23:43.750Z,-1.23
2018-12-06T19:26:13.073Z,-1.40
2018-12-06T19:28:42.816Z,-1.41
2018-12-06T19:31:12.092Z,-1.36
2018-12-06T19:33:41.568Z,-1.38
2018-12-06T19:36:10.967Z,-1.46
2018-12-06T19:38:40.453Z,-1.44
2018-12-06T19:41:09.852Z,-1.44
2018-12-06T19:43:39.395Z,-1.56
2018-12-06T19:46:08.738Z,-1.56
2018-12-06T19:48:38.293Z,-1.50
2018-12-06T19:51:07.770Z,-1.72
2018-12-06T19:53:37.285Z,-1.70
2018-12-06T19:56:06.676Z,-1.74
2018-12-06T19:58:37.492Z,-1.71
2018-12-06T20:01:06.797Z,-1.65
2018-12-06T20:03:36.121Z,-1.67
2018-12-06T20:06:05.961Z,-1.74
2018-12-06T20:08:35.518Z,-1.74
2018-12-06T20:11:04.812Z,-1.74
2018-12-06T20:13:34.219Z,-1.63
2018-12-06T20:16:04.009Z,-1.75
2018-12-06T20:18:33.440Z,-1.59
2018-12-06T20:21:02.888Z,-1.60
2018-12-06T20:23:32.501Z,-1.66
2018-12-06T20:26:02.045Z,-1.69
2018-12-06T20:28:31.767Z,-1.75
2018-12-06T20:31:01.067Z,-1.85
2018-12-06T20:33:30.640Z,-1.98
2018-12-06T20:36:00.188Z,-1.94
2018-12-06T20:38:29.729Z,-1.97
2018-12-06T20:40:59.075Z,-2.01
2018-12-06T20:43:28.699Z,-1.95
2018-12-06T20:45:58.080Z,-1.84
2018-12-06T20:48:27.536Z,-1.91
2018-12-06T20:50:57.113Z,-1.95
2018-12-06T20:53:26.820Z,-2.04
2018-12-06T20:55:56.208Z,-2.02
2018-12-06T20:58:25.870Z,-2.05
2018-12-06T21:00:55.249Z,-1.83
2018-12-06T21:03:24.639Z,-1.83
2018-12-06T21:05:53.952Z,-1.98
2018-12-06T21:08:23.452Z,-1.99
2018-12-06T21:10:52.946Z,-2.14
2018-12-06T21:13:22.646Z,-2.23
2018-12-06T21:15:52.277Z,-2.13
2018-12-06T21:18:21.837Z,-2.00
2018-12-06T21:20:51.345Z,-2.07
2018-12-06T21:23:20.703Z,-2.24
2018-12-06T21:25:50.259Z,-2.15
2018-12-06T21:28:19.738Z,-2.16
2018-12-06T21:30:49.090Z,-2.24
2018-12-06T21:33:18.812Z,-2.27
2018-12-06T21:35:48.467Z,-2.48
2018-12-06T21:38:17.403Z,-2.44
2018-12-06T21:40:47.016Z,-2.50
2018-12-06T21:43:16.360Z,-2.50
2018-12-06T21:45:45.865Z,-2.44
2018-12-06T21:48:15.207Z,-2.49
2018-12-06T21:50:44.938Z,-2.55
2018-12-06T21:53:14.385Z,-2.52
2018-12-06T21:55:43.908Z,-2.46
2018-12-06T21:58:13.550Z,-2.32
2018-12-06T22:00:42.912Z,-2.35
2018-12-06T22:03:12.408Z,-2.29
2018-12-06T22:05:42.013Z,-2.43
2018-12-06T22:08:11.269Z,-2.57
2018-12-06T22:10:40.796Z,-2.67
2018-12-06T22:13:10.341Z,-2.64
2018-12-06T22:15:39.944Z,-2.58
2018-12-06T22:18:09.520Z,-2.54
2018-12-06T22:20:38.912Z,-2.35
2018-12-06T22:23:08.423Z,-2.39
2018-12-06T22:25:38.271Z,-2.55
2018-12-06T22:28:07.902Z,-2.71
2018-12-06T22:30:37.248Z,-2.86
2018-12-06T22:33:06.662Z,-2.85
2018-12-06T22:35:36.379Z,-2.91
2018-12-06T22:38:05.960Z,-2.91
2018-12-06T22:40:35.566Z,-2.92
2018-12-06T22:43:05.013Z,-2.81
2018-12-06T22:46:05.359Z,-2.82
2018-12-06T22:48:34.944Z,-2.83
2018-12-06T22:51:04.415Z,-2.92
2018-12-06T22:53:33.946Z,-2.82
2018-12-06T22:56:03.542Z,-2.90
2018-12-06T22:58:33.391Z,-2.99
2018-12-06T23:01:07.136Z,-2.79
2018-12-06T23:03:38.695Z,-2.60
2018-12-06T23:06:08.195Z,-2.62
2018-12-06T23:08:38.887Z,-2.71
2018-12-06T23:11:08.398Z,-2.84
2018-12-06T23:13:38.004Z,-2.90
2018-12-06T23:16:07.446Z,-2.81
2018-12-06T23:18:36.759Z,-2.66
2018-12-06T23:21:07.233Z,-2.78
2018-12-06T23:23:43.379Z,-2.90
2018-12-06T23:26:13.120Z,-2.86
2018-12-06T23:28:42.450Z,-2.81
2018-12-06T23:31:11.880Z,-2.81
2018-12-06T23:33:41.482Z,-3.04
2018-12-06T23:36:11.724Z,-3.09
2018-12-06T23:38:41.527Z,-3.10
2018-12-06T23:41:11.192Z,-3.08
2018-12-06T23:43:40.592Z,-3.12
2018-12-06T23:46:10.247Z,-3.11
2018-12-06T23:48:39.564Z,-3.08
2018-12-06T23:51:20.059Z,-3.08
2018-12-06T23:53:49.457Z,-3.08
2018-12-06T23:56:20.143Z,-3.03
2018-12-06T23:58:49.408Z,-2.99
